createdAt,value
2023-04-25T00:01:49.605Z,100010.25
2023-04-25T00:04:16.962Z,100019.34
2023-04-25T00:06:43.684Z,100019.53
2023-04-25T00:09:11.132Z,100029.25
2023-04-25T00:11:38.660Z,100032.28
2023-04-25T00:14:05.805Z,100030.03
2023-04-25T00:16:34.834Z,100030.31
2023-04-25T00:19:02.480Z,100026.34
2023-04-25T00:21:29.286Z,100024.56
2023-04-25T00:23:56.702Z,100028.31
2023-04-25T00:26:23.144Z,100038.00
2023-04-25T00:28:49.648Z,100039.03
2023-04-25T00:31:16.170Z,100031.69
2023-04-25T00:33:42.647Z,100028.72
2023-04-25T00:36:09.645Z,100026.75
2023-04-25T00:38:36.709Z,100029.13
2023-04-25T00:41:03.140Z,100024.53
2023-04-25T00:43:33.259Z,100021.53
2023-04-25T00:46:01.634Z,100012.13
2023-04-25T00:48:28.379Z,100016.75
2023-04-25T00:50:57.545Z,100014.41
2023-04-25T00:53:25.590Z,100020.66
2023-04-25T00:55:52.986Z,100019.56
2023-04-25T00:58:20.867Z,100022.34
2023-04-25T01:00:48.721Z,100026.09
2023-04-25T01:03:21.310Z,100016.72
2023-04-25T01:05:49.007Z,100013.63
2023-04-25T01:08:15.786Z,100015.44
2023-04-25T01:10:42.197Z,100018.59
2023-04-25T01:13:09.091Z,100017.47
2023-04-25T01:15:36.887Z,100017.00
2023-04-25T01:18:05.152Z,100011.84
2023-04-25T01:20:33.448Z,100005.94
2023-04-25T01:23:01.251Z,100009.53
2023-04-25T01:25:27.818Z,100010.59
2023-04-25T01:27:54.419Z,99999.34
2023-04-25T01:30:20.978Z,100000.34
2023-04-25T01:32:49.189Z,99986.59
2023-04-25T01:35:15.909Z,99987.06
2023-04-25T01:37:43.920Z,99990.66
2023-04-25T01:40:12.114Z,99983.81
2023-04-25T01:42:41.655Z,99983.34
2023-04-25T01:45:09.449Z,99981.25
2023-04-25T01:47:36.259Z,99977.88
2023-04-25T01:50:04.126Z,99984.97
2023-04-25T01:52:30.708Z,99982.28
2023-04-25T01:55:00.536Z,99980.19
2023-04-25T01:57:27.018Z,99985.53
2023-04-25T01:59:59.971Z,99978.16
2023-04-25T02:02:27.213Z,99986.28
2023-04-25T02:04:55.086Z,99985.34
2023-04-25T02:07:21.756Z,99986.81
2023-04-25T02:09:48.260Z,99985.44
2023-04-25T02:12:14.755Z,99996.63
2023-04-25T02:14:41.153Z,99992.97
2023-04-25T02:17:08.121Z,99989.69
2023-04-25T02:19:34.770Z,99986.81
2023-04-25T02:22:01.659Z,99981.13
2023-04-25T02:24:28.934Z,99978.66
2023-04-25T02:26:56.870Z,99975.22
2023-04-25T02:29:24.049Z,99972.34
2023-04-25T02:31:50.812Z,99979.00
2023-04-25T02:34:17.353Z,99969.69
2023-04-25T02:36:43.923Z,99970.22
2023-04-25T02:40:12.893Z,99968.09
2023-04-25T02:42:39.343Z,99980.00
2023-04-25T02:45:06.195Z,99977.13
2023-04-25T02:47:32.803Z,99985.28
2023-04-25T02:49:59.300Z,99981.91
2023-04-25T02:52:26.312Z,99985.28
2023-04-25T02:54:52.741Z,99995.09
2023-04-25T02:57:19.310Z,99994.88
2023-04-25T02:59:45.758Z,99999.56
2023-04-25T03:02:12.256Z,99989.00
2023-04-25T03:04:38.746Z,99985.66
2023-04-25T03:07:05.309Z,99990.41
2023-04-25T03:09:31.753Z,99987.44
2023-04-25T03:11:58.260Z,99986.97
2023-04-25T03:14:24.649Z,99983.41
2023-04-25T03:16:51.084Z,99978.38
2023-04-25T03:19:17.934Z,99977.81
2023-04-25T03:21:44.722Z,99969.69
2023-04-25T03:24:12.100Z,99969.63
2023-04-25T03:26:38.557Z,99982.06
2023-04-25T03:29:04.979Z,99988.81
2023-04-25T03:31:31.911Z,99988.94
2023-04-25T03:33:58.518Z,100000.22
2023-04-25T03:36:24.922Z,100010.31
2023-04-25T03:38:51.759Z,100016.00
2023-04-25T03:41:18.186Z,100030.69
2023-04-25T03:43:44.577Z,100030.34
2023-04-25T03:46:11.075Z,100026.22
2023-04-25T03:48:37.550Z,100028.47
2023-04-25T03:51:04.206Z,100030.47
2023-04-25T03:53:30.653Z,100026.88
2023-04-25T03:55:57.018Z,100027.13
2023-04-25T03:58:25.260Z,100034.94
2023-04-25T04:00:51.682Z,100032.97
2023-04-25T04:03:18.343Z,100027.81
2023-04-25T04:05:46.116Z,100028.56
2023-04-25T04:08:12.885Z,100028.44
2023-04-25T04:10:39.312Z,100028.25
2023-04-25T04:13:05.784Z,100020.41
2023-04-25T04:15:33.872Z,100016.59
2023-04-25T04:18:03.809Z,100022.41
2023-04-25T04:20:31.457Z,100021.97
2023-04-25T04:22:58.328Z,100025.34
2023-04-25T04:25:25.580Z,100031.38
2023-04-25T04:27:55.599Z,100026.56
2023-04-25T04:30:25.117Z,100028.13
2023-04-25T04:32:52.708Z,100031.25
2023-04-25T04:35:19.291Z,100032.97
2023-04-25T04:37:46.681Z,100033.72
2023-04-25T04:40:16.203Z,100031.28
2023-04-25T04:42:48.991Z,100032.16
2023-04-25T04:45:15.722Z,100039.00
2023-04-25T04:47:42.241Z,100043.59
2023-04-25T04:50:10.306Z,100036.50
2023-04-25T04:52:37.583Z,100041.47
2023-04-25T04:55:05.425Z,100048.19
2023-04-25T04:57:33.710Z,100051.44
2023-04-25T05:00:00.570Z,100053.34
2023-04-25T05:02:27.362Z,100047.28
2023-04-25T05:04:53.991Z,100044.50
2023-04-25T05:07:20.554Z,100047.28
2023-04-25T05:09:46.935Z,100041.03
2023-04-25T05:12:13.623Z,100047.72
2023-04-25T05:14:40.023Z,100048.53
2023-04-25T05:17:09.275Z,100037.44
2023-04-25T05:19:35.757Z,100035.31
2023-04-25T05:22:03.204Z,100032.28
2023-04-25T05:24:29.713Z,100031.59
2023-04-25T05:26:56.097Z,100035.75
2023-04-25T05:29:22.530Z,100031.25
2023-04-25T05:31:49.224Z,100036.06
2023-04-25T05:34:16.222Z,100041.41
2023-04-25T05:36:42.683Z,100042.44
2023-04-25T05:39:09.838Z,100045.97
2023-04-25T05:41:36.222Z,100045.50
2023-04-25T05:44:03.301Z,100048.69
2023-04-25T05:46:29.772Z,100056.00
2023-04-25T05:48:56.233Z,100051.41
2023-04-25T05:51:22.645Z,100056.75
2023-04-25T05:53:49.237Z,100052.59
2023-04-25T05:56:15.968Z,100042.72
2023-04-25T05:58:42.447Z,100051.09
2023-04-25T06:01:09.887Z,100055.38
2023-04-25T06:03:36.657Z,100061.63
2023-04-25T06:06:03.527Z,100063.38
2023-04-25T06:08:30.082Z,100064.56
2023-04-25T06:10:56.503Z,100067.41
2023-04-25T06:13:22.967Z,100072.88
2023-04-25T06:15:49.408Z,100060.03
2023-04-25T06:18:15.880Z,100067.22
2023-04-25T06:20:42.282Z,100065.44
2023-04-25T06:23:08.673Z,100067.06
2023-04-25T06:25:35.260Z,100069.09
2023-04-25T06:28:01.794Z,100059.34
2023-04-25T06:30:28.346Z,100060.25
2023-04-25T06:32:54.959Z,100056.03
2023-04-25T06:35:21.450Z,100050.78
2023-04-25T06:37:48.278Z,100045.22
2023-04-25T06:40:14.937Z,100038.34
2023-04-25T06:42:41.365Z,100043.75
2023-04-25T06:45:08.426Z,100042.63
2023-04-25T06:47:34.955Z,100043.22
2023-04-25T06:50:01.676Z,100042.53
2023-04-25T06:52:28.160Z,100046.72
2023-04-25T06:54:54.641Z,100043.13
2023-04-25T06:57:21.019Z,100040.84
2023-04-25T06:59:47.454Z,100027.63
2023-04-25T07:02:13.999Z,100022.66
2023-04-25T07:04:40.656Z,100026.84
2023-04-25T07:07:07.226Z,100025.03
2023-04-25T07:09:34.899Z,100037.56
2023-04-25T07:12:02.575Z,100036.56
2023-04-25T07:14:29.440Z,100040.38
2023-04-25T07:16:57.853Z,100045.41
2023-04-25T07:19:27.426Z,100048.06
2023-04-25T07:21:54.226Z,100052.53
2023-04-25T07:24:20.781Z,100052.44
2023-04-25T07:26:47.344Z,100056.09
2023-04-25T07:29:13.786Z,100058.84
2023-04-25T07:31:40.465Z,100070.22
2023-04-25T07:34:07.011Z,100071.91
2023-04-25T07:36:33.456Z,100072.22
2023-04-25T07:39:02.644Z,100068.94
2023-04-25T07:41:29.147Z,100074.69
2023-04-25T07:43:55.935Z,100068.13
2023-04-25T07:46:22.457Z,100075.47
2023-04-25T07:48:49.330Z,100081.63
2023-04-25T07:51:16.186Z,100092.03
2023-04-25T07:53:42.593Z,100086.84
2023-04-25T07:56:09.016Z,100090.78
2023-04-25T07:58:35.865Z,100091.31
2023-04-25T08:01:02.480Z,100090.16
2023-04-25T08:03:29.139Z,100095.41
2023-04-25T08:05:56.621Z,100098.28
2023-04-25T08:08:29.786Z,100093.03
2023-04-25T08:10:56.483Z,100096.19
2023-04-25T08:13:22.916Z,100088.06
2023-04-25T08:15:49.492Z,100081.75
2023-04-25T08:18:17.539Z,100083.09
2023-04-25T08:20:44.337Z,100093.19
2023-04-25T08:23:11.779Z,100088.09
2023-04-25T08:25:38.224Z,100088.22
2023-04-25T08:28:04.773Z,100094.72
2023-04-25T08:30:31.293Z,100100.88
2023-04-25T08:32:57.823Z,100103.28
2023-04-25T08:35:24.303Z,100105.25
2023-04-25T08:37:50.805Z,100108.47
2023-04-25T08:40:17.276Z,100102.03
2023-04-25T08:42:43.888Z,100107.41
2023-04-25T08:45:10.851Z,100109.38
2023-04-25T08:47:38.985Z,100111.53
2023-04-25T08:50:06.554Z,100113.88
2023-04-25T08:52:39.971Z,100115.91
2023-04-25T08:55:10.004Z,100103.84
2023-04-25T08:57:37.824Z,100108.47
2023-04-25T09:00:05.273Z,100109.00
2023-04-25T09:02:32.163Z,100105.63
2023-04-25T09:04:58.735Z,100111.16
2023-04-25T09:07:26.621Z,100111.00
2023-04-25T09:09:53.249Z,100116.00
2023-04-25T09:12:20.723Z,100116.91
2023-04-25T09:15:11.136Z,100125.78
2023-04-25T09:17:41.374Z,100122.09
2023-04-25T09:20:13.269Z,100119.50
2023-04-25T09:22:40.116Z,100114.66
2023-04-25T09:25:15.429Z,100126.56
2023-04-25T09:27:53.048Z,100118.66
2023-04-25T09:30:20.112Z,100119.09
2023-04-25T09:32:46.634Z,100118.75
2023-04-25T09:35:25.351Z,100122.22
2023-04-25T09:37:51.932Z,100122.22
2023-04-25T09:40:19.526Z,100128.66
2023-04-25T09:42:46.270Z,100122.38
2023-04-25T09:45:16.094Z,100123.72
2023-04-25T09:47:44.985Z,100124.47
2023-04-25T09:50:16.923Z,100118.47
2023-04-25T09:52:44.139Z,100123.69
2023-04-25T09:55:10.690Z,100126.47
2023-04-25T09:57:40.682Z,100125.13
2023-04-25T10:00:11.978Z,100121.72
2023-04-25T10:02:42.594Z,100126.69
2023-04-25T10:05:09.577Z,100123.34
2023-04-25T10:07:39.109Z,100122.84
2023-04-25T10:10:07.267Z,100124.41
2023-04-25T10:12:34.591Z,100122.53
2023-04-25T10:15:02.369Z,100114.44
2023-04-25T10:17:29.212Z,100122.31
2023-04-25T10:19:56.260Z,100124.47
2023-04-25T10:22:42.331Z,100114.88
2023-04-25T10:25:10.037Z,100115.84
2023-04-25T10:27:37.111Z,100101.63
2023-04-25T10:30:15.398Z,100114.53
2023-04-25T10:32:51.466Z,100107.28
2023-04-25T10:35:20.452Z,100111.28
2023-04-25T10:38:13.551Z,100119.31
2023-04-25T10:40:40.371Z,100112.09
2023-04-25T10:43:31.783Z,100118.75
2023-04-25T10:46:01.376Z,100116.72
2023-04-25T10:48:32.516Z,100130.97
2023-04-25T10:51:12.562Z,100118.47
2023-04-25T10:53:39.092Z,100116.53
2023-04-25T10:56:14.540Z,100112.84
2023-04-25T10:58:45.640Z,100110.09
2023-04-25T11:01:13.223Z,100112.94
2023-04-25T11:03:44.444Z,100113.38
2023-04-25T11:06:23.650Z,100106.19
2023-04-25T11:08:52.405Z,100098.78
2023-04-25T11:11:19.773Z,100093.84
2023-04-25T11:13:50.873Z,100084.75
2023-04-25T11:16:26.796Z,100090.66
2023-04-25T11:18:54.391Z,100080.59
2023-04-25T11:21:21.032Z,100083.09
2023-04-25T11:23:47.528Z,100072.53
2023-04-25T11:26:16.325Z,100065.41
2023-04-25T11:28:46.489Z,100056.38
2023-04-25T11:31:13.001Z,100061.06
2023-04-25T11:33:41.672Z,100049.84
2023-04-25T11:36:08.392Z,100045.50
2023-04-25T11:38:35.338Z,100036.13
2023-04-25T11:41:02.235Z,100035.25
2023-04-25T11:43:29.292Z,100035.94
2023-04-25T11:45:55.949Z,100049.47
2023-04-25T11:48:26.292Z,100041.41
2023-04-25T11:50:54.856Z,100036.84
2023-04-25T11:53:21.429Z,100034.34
2023-04-25T11:55:48.773Z,100035.28
2023-04-25T11:58:15.390Z,100027.28
2023-04-25T12:00:50.667Z,100033.97
2023-04-25T12:03:32.342Z,100024.72
2023-04-25T12:06:05.119Z,100031.88
2023-04-25T12:08:31.724Z,100023.25
2023-04-25T12:10:58.146Z,100028.44
2023-04-25T12:13:26.727Z,100025.47
2023-04-25T12:15:56.573Z,100027.81
2023-04-25T12:18:26.403Z,100021.03
2023-04-25T12:20:53.985Z,100019.09
2023-04-25T12:23:29.887Z,100021.78
2023-04-25T12:25:57.090Z,100022.34
2023-04-25T12:28:25.648Z,100026.59
2023-04-25T12:31:06.648Z,100024.59
2023-04-25T12:33:38.102Z,100030.03
2023-04-25T12:36:09.884Z,100038.06
2023-04-25T12:38:44.116Z,100044.19
2023-04-25T12:41:11.015Z,100037.44
2023-04-25T12:43:37.447Z,100046.34
2023-04-25T12:46:04.453Z,100047.03
2023-04-25T12:48:31.061Z,100045.84
2023-04-25T12:50:57.468Z,100048.91
2023-04-25T12:53:25.344Z,100042.78
2023-04-25T12:55:51.951Z,100052.56
2023-04-25T12:58:19.901Z,100058.44
2023-04-25T13:00:47.190Z,100058.38
2023-04-25T13:03:13.975Z,100061.50
2023-04-25T13:05:41.261Z,100056.81
2023-04-25T13:08:07.701Z,100068.97
2023-04-25T13:10:34.950Z,100072.75
2023-04-25T13:13:02.177Z,100068.75
2023-04-25T13:15:29.008Z,100078.28
2023-04-25T13:17:55.452Z,100077.09
2023-04-25T13:20:29.200Z,100082.44
2023-04-25T13:22:56.151Z,100087.97
2023-04-25T13:25:25.879Z,100093.97
2023-04-25T13:27:52.420Z,100103.97
2023-04-25T13:30:21.631Z,100119.19
2023-04-25T13:32:48.157Z,100117.56
2023-04-25T13:35:15.094Z,100106.75
2023-04-25T13:37:41.623Z,100111.75
2023-04-25T13:40:12.360Z,100120.47
2023-04-25T13:42:39.877Z,100128.69
2023-04-25T13:45:07.108Z,100143.53
2023-04-25T13:47:34.317Z,100153.06
2023-04-25T13:50:01.731Z,100169.59
2023-04-25T13:52:28.238Z,100188.53
2023-04-25T13:54:54.895Z,100210.47
2023-04-25T13:57:21.452Z,100221.34
2023-04-25T13:59:48.079Z,100211.31
2023-04-25T14:02:14.792Z,100215.78
2023-04-25T14:04:41.929Z,100196.53
2023-04-25T14:07:08.486Z,100190.75
2023-04-25T14:09:35.298Z,100197.91
2023-04-25T14:12:03.047Z,100198.06
2023-04-25T14:14:29.648Z,100198.88
2023-04-25T14:16:56.230Z,100184.00
2023-04-25T14:19:22.716Z,100138.63
2023-04-25T14:21:49.304Z,100106.00
2023-04-25T14:24:16.812Z,100090.44
2023-04-25T14:26:46.464Z,100106.13
2023-04-25T14:29:13.294Z,100100.78
2023-04-25T14:31:41.351Z,100088.78
2023-04-25T14:34:08.659Z,100085.03
2023-04-25T14:36:37.357Z,100082.31
2023-04-25T14:39:06.042Z,100074.91
2023-04-25T14:41:32.821Z,100074.50
2023-04-25T14:43:59.303Z,100063.91
2023-04-25T14:46:26.486Z,100063.75
2023-04-25T14:48:53.109Z,100063.13
2023-04-25T14:51:19.579Z,100066.34
2023-04-25T14:53:46.168Z,100057.06
2023-04-25T14:56:13.411Z,100051.78
2023-04-25T14:58:41.344Z,100053.72
2023-04-25T15:01:08.145Z,100052.16
2023-04-25T15:03:35.039Z,100055.16
2023-04-25T15:06:01.793Z,100062.81
2023-04-25T15:08:28.215Z,100056.53
2023-04-25T15:10:54.725Z,100057.50
2023-04-25T15:13:21.574Z,100054.44
2023-04-25T15:15:52.096Z,100054.97
2023-04-25T15:18:22.967Z,100057.38
2023-04-25T15:20:49.668Z,100056.19
2023-04-25T15:23:16.425Z,100066.13
2023-04-25T15:25:43.137Z,100069.84
2023-04-25T15:28:09.799Z,100072.69
2023-04-25T15:30:36.370Z,100064.34
2023-04-25T15:33:03.844Z,100068.28
2023-04-25T15:35:30.426Z,100075.44
2023-04-25T15:37:56.867Z,100082.09
2023-04-25T15:40:23.377Z,100089.41
2023-04-25T15:42:51.796Z,100090.03
2023-04-25T15:45:19.888Z,100087.56
2023-04-25T15:47:46.476Z,100090.03
2023-04-25T15:50:14.986Z,100096.31
2023-04-25T15:52:42.190Z,100101.97
2023-04-25T15:55:09.706Z,100102.97
2023-04-25T15:57:37.255Z,100107.16
2023-04-25T16:00:17.484Z,100110.25
2023-04-25T16:02:45.441Z,100116.50
2023-04-25T16:05:14.449Z,100122.44
2023-04-25T16:07:42.755Z,100115.88
2023-04-25T16:10:11.248Z,100120.91
2023-04-25T16:12:41.011Z,100137.03
2023-04-25T16:15:08.296Z,100129.88
2023-04-25T16:17:35.163Z,100132.66
2023-04-25T16:20:10.140Z,100135.84
2023-04-25T16:22:38.828Z,100143.81
2023-04-25T16:25:06.193Z,100142.81
2023-04-25T16:27:34.722Z,100141.03
2023-04-25T16:30:02.069Z,100145.22
2023-04-25T16:32:28.570Z,100145.03
2023-04-25T16:34:56.401Z,100151.56
2023-04-25T16:37:24.528Z,100145.63
2023-04-25T16:39:51.171Z,100148.00
2023-04-25T16:42:17.618Z,100151.19
2023-04-25T16:44:44.362Z,100148.28
2023-04-25T16:47:12.189Z,100146.50
2023-04-25T16:49:41.038Z,100163.53
2023-04-25T16:52:07.556Z,100154.94
2023-04-25T16:54:33.961Z,100160.03
2023-04-25T16:57:01.389Z,100170.31
2023-04-25T16:59:27.883Z,100182.22
2023-04-25T17:01:54.750Z,100181.03
2023-04-25T17:04:21.471Z,100187.09
2023-04-25T17:06:48.436Z,100187.59
2023-04-25T17:09:15.278Z,100193.00
2023-04-25T17:11:42.049Z,100199.94
2023-04-25T17:14:08.600Z,100193.16
2023-04-25T17:16:44.026Z,100190.09
2023-04-25T17:19:10.525Z,100197.94
2023-04-25T17:21:37.965Z,100199.53
2023-04-25T17:24:09.563Z,100209.97
2023-04-25T17:26:36.839Z,100201.44
2023-04-25T17:29:04.213Z,100201.25
2023-04-25T17:31:31.061Z,100210.97
2023-04-25T17:33:57.674Z,100207.38
2023-04-25T17:36:24.563Z,100209.75
2023-04-25T17:38:51.267Z,100204.31
2023-04-25T17:41:18.787Z,100212.34
2023-04-25T17:43:45.671Z,100223.25
2023-04-25T17:46:12.111Z,100231.16
2023-04-25T17:48:38.556Z,100237.94
2023-04-25T17:51:05.152Z,100239.94
2023-04-25T17:53:31.600Z,100246.72
2023-04-25T17:55:58.361Z,100253.97
2023-04-25T17:58:25.051Z,100256.81
2023-04-25T18:00:51.553Z,100265.69
2023-04-25T18:03:18.194Z,100268.16
2023-04-25T18:05:44.705Z,100268.59
2023-04-25T18:08:11.280Z,100270.53
2023-04-25T18:10:38.825Z,100278.84
2023-04-25T18:13:05.378Z,100279.75
2023-04-25T18:15:31.852Z,100288.03
2023-04-25T18:17:58.483Z,100286.06
2023-04-25T18:20:25.742Z,100298.75
2023-04-25T18:22:52.191Z,100298.84
2023-04-25T18:25:18.646Z,100307.81
2023-04-25T18:27:45.982Z,100313.31
2023-04-25T18:30:13.675Z,100323.09
2023-04-25T18:32:40.269Z,100321.84
2023-04-25T18:35:07.196Z,100324.78
2023-04-25T18:37:33.746Z,100331.31
2023-04-25T18:40:05.915Z,100336.34
2023-04-25T18:42:33.246Z,100336.47
2023-04-25T18:44:59.725Z,100335.38
2023-04-25T18:47:26.220Z,100353.44
2023-04-25T18:49:52.689Z,100344.69
2023-04-25T18:52:19.601Z,100350.06
2023-04-25T18:54:46.041Z,100355.59
2023-04-25T18:57:14.970Z,100359.63
2023-04-25T18:59:42.741Z,100357.69
2023-04-25T19:02:09.387Z,100360.28
2023-04-25T19:04:36.185Z,100370.06
2023-04-25T19:07:03.620Z,100377.03
2023-04-25T19:09:30.105Z,100382.31
2023-04-25T19:11:57.439Z,100381.63
2023-04-25T19:14:23.861Z,100388.50
2023-04-25T19:16:50.365Z,100382.84
2023-04-25T19:19:16.766Z,100391.06
2023-04-25T19:21:43.182Z,100395.78
2023-04-25T19:24:09.800Z,100399.84
2023-04-25T19:26:36.354Z,100402.97
2023-04-25T19:29:14.428Z,100406.84
2023-04-25T19:31:44.001Z,100410.69
2023-04-25T19:34:11.999Z,100406.25
2023-04-25T19:36:39.604Z,100408.50
2023-04-25T19:39:07.289Z,100416.59
2023-04-25T19:41:36.320Z,100415.16
2023-04-25T19:44:07.537Z,100413.00
2023-04-25T19:46:34.565Z,100412.09
2023-04-25T19:49:01.537Z,100418.16
2023-04-25T19:51:28.653Z,100417.94
2023-04-25T19:53:55.653Z,100430.03
2023-04-25T19:56:22.790Z,100424.81
2023-04-25T19:58:49.659Z,100425.75
2023-04-25T20:01:17.256Z,100434.84
2023-04-25T20:03:44.280Z,100434.03
2023-04-25T20:06:11.422Z,100450.13
2023-04-25T20:08:37.879Z,100449.44
2023-04-25T20:11:04.340Z,100449.34
2023-04-25T20:13:31.455Z,100451.69
2023-04-25T20:16:00.038Z,100453.28
2023-04-25T20:18:29.221Z,100456.41
2023-04-25T20:20:55.742Z,100454.19
2023-04-25T20:23:22.257Z,100462.56
2023-04-25T20:25:48.950Z,100457.28
2023-04-25T20:28:15.831Z,100449.31
2023-04-25T20:30:42.334Z,100465.16
2023-04-25T20:33:09.296Z,100465.06
2023-04-25T20:35:36.829Z,100463.69
2023-04-25T20:38:03.253Z,100452.63
2023-04-25T20:40:29.802Z,100458.53
2023-04-25T20:42:56.489Z,100458.75
2023-04-25T20:45:24.313Z,100459.97
2023-04-25T20:47:50.897Z,100459.81
2023-04-25T20:50:17.514Z,100462.75
2023-04-25T20:52:44.340Z,100467.41
2023-04-25T20:55:11.862Z,100460.06
2023-04-25T20:57:38.355Z,100463.41
2023-04-25T21:00:16.647Z,100469.31
2023-04-25T21:02:43.171Z,100466.34
2023-04-25T21:05:10.777Z,100466.59
2023-04-25T21:07:38.260Z,100469.06
2023-04-25T21:10:05.240Z,100469.59
2023-04-25T21:12:31.807Z,100468.56
2023-04-25T21:15:00.337Z,100463.31
2023-04-25T21:17:27.242Z,100462.38
2023-04-25T21:19:53.900Z,100464.84
2023-04-25T21:22:21.493Z,100458.78
2023-04-25T21:24:50.473Z,100468.56
2023-04-25T21:27:19.840Z,100463.53
2023-04-25T21:29:46.329Z,100462.13
2023-04-25T21:32:16.770Z,100455.44
2023-04-25T21:34:43.611Z,100460.84
2023-04-25T21:37:10.371Z,100459.28
2023-04-25T21:39:36.797Z,100468.81
2023-04-25T21:42:06.273Z,100465.47
2023-04-25T21:44:32.975Z,100474.19
2023-04-25T21:46:59.455Z,100470.50
2023-04-25T21:49:29.327Z,100480.38
2023-04-25T21:51:56.980Z,100484.56
2023-04-25T21:54:23.471Z,100487.00
2023-04-25T21:56:49.935Z,100489.16
2023-04-25T21:59:16.356Z,100484.16
2023-04-25T22:01:43.484Z,100489.16
2023-04-25T22:04:10.127Z,100481.59
2023-04-25T22:06:36.742Z,100487.47
2023-04-25T22:09:04.729Z,100485.47
2023-04-25T22:11:31.129Z,100489.31
2023-04-25T22:13:57.558Z,100484.16
2023-04-25T22:16:24.205Z,100481.75
2023-04-25T22:18:52.115Z,100477.25
2023-04-25T22:21:18.686Z,100486.00
2023-04-25T22:23:45.099Z,100482.09
2023-04-25T22:26:12.462Z,100480.66
2023-04-25T22:28:39.744Z,100481.41
2023-04-25T22:31:06.212Z,100488.78
2023-04-25T22:33:33.370Z,100491.44
2023-04-25T22:35:59.800Z,100489.13
2023-04-25T22:38:26.410Z,100491.19
2023-04-25T22:40:52.974Z,100493.88
2023-04-25T22:43:19.722Z,100486.56
2023-04-25T22:45:46.381Z,100495.72
2023-04-25T22:48:13.376Z,100497.13
2023-04-25T22:50:40.874Z,100491.38
2023-04-25T22:53:09.146Z,100491.88
2023-04-25T22:55:36.865Z,100492.53
2023-04-25T22:58:04.340Z,100499.53
2023-04-25T23:00:31.030Z,100505.47
2023-04-25T23:02:58.072Z,100502.56
2023-04-25T23:05:24.688Z,100506.34
2023-04-25T23:07:51.392Z,100498.66
2023-04-25T23:10:18.685Z,100511.25
2023-04-25T23:12:45.361Z,100508.53
2023-04-25T23:15:13.446Z,100506.81
2023-04-25T23:17:40.539Z,100503.41
2023-04-25T23:20:10.019Z,100502.91
2023-04-25T23:22:36.420Z,100509.06
2023-04-25T23:25:02.862Z,100517.75
2023-04-25T23:27:29.318Z,100517.34
2023-04-25T23:29:56.634Z,100518.38
2023-04-25T23:32:23.266Z,100516.84
2023-04-25T23:34:49.670Z,100520.06
2023-04-25T23:37:16.105Z,100514.94
2023-04-25T23:39:48.725Z,100517.84
2023-04-25T23:42:15.163Z,100517.28
2023-04-25T23:44:41.616Z,100514.97
2023-04-25T23:47:08.162Z,100523.47
2023-04-25T23:49:34.659Z,100529.31
2023-04-25T23:52:01.142Z,100522.25
2023-04-25T23:54:27.525Z,100528.53
2023-04-25T23:56:54.008Z,100535.06
2023-04-25T23:59:20.948Z,100534.25
